sensor_id;sensor_type;location;lat;lon;timestamp;pressure;altitude;pressure_sealevel;temperature;humidity
81937;BME280;71432;56.558;9.036;2024-01-25T00:02:21;100948.13;;;22.81;42.50
81937;BME280;71432;56.558;9.036;2024-01-25T00:04:46;100950.63;;;22.82;42.73
81937;BME280;71432;56.558;9.036;2024-01-25T00:07:12;100937.56;;;22.81;42.90
81937;BME280;71432;56.558;9.036;2024-01-25T00:09:37;100938.56;;;22.80;42.53
81937;BME280;71432;56.558;9.036;2024-01-25T00:12:03;100971.88;;;22.81;42.78
81937;BME280;71432;56.558;9.036;2024-01-25T00:14:28;100979.13;;;22.79;42.90
81937;BME280;71432;56.558;9.036;2024-01-25T00:16:53;100986.38;;;22.77;42.93
81937;BME280;71432;56.558;9.036;2024-01-25T00:19:19;100992.78;;;22.74;42.85
81937;BME280;71432;56.558;9.036;2024-01-25T00:21:44;101000.56;;;22.76;42.81
81937;BME280;71432;56.558;9.036;2024-01-25T00:24:13;101013.59;;;22.77;42.73
81937;BME280;71432;56.558;9.036;2024-01-25T00:26:38;101010.75;;;22.71;43.08
81937;BME280;71432;56.558;9.036;2024-01-25T00:29:04;101015.31;;;22.69;42.87
81937;BME280;71432;56.558;9.036;2024-01-25T00:31:29;101024.59;;;22.73;42.98
81937;BME280;71432;56.558;9.036;2024-01-25T00:33:56;101028.22;;;22.72;42.66
81937;BME280;71432;56.558;9.036;2024-01-25T00:36:22;101017.50;;;22.73;43.07
81937;BME280;71432;56.558;9.036;2024-01-25T00:38:48;101017.00;;;22.70;43.09
81937;BME280;71432;56.558;9.036;2024-01-25T00:41:17;100997.56;;;22.71;43.19
81937;BME280;71432;56.558;9.036;2024-01-25T00:43:43;101002.09;;;22.69;43.09
81937;BME280;71432;56.558;9.036;2024-01-25T00:46:09;100997.81;;;22.68;42.91
81937;BME280;71432;56.558;9.036;2024-01-25T00:48:34;101001.44;;;22.67;43.29
81937;BME280;71432;56.558;9.036;2024-01-25T00:51:00;101018.41;;;22.64;43.11
81937;BME280;71432;56.558;9.036;2024-01-25T00:53:26;101018.41;;;22.64;43.19
81937;BME280;71432;56.558;9.036;2024-01-25T00:55:52;101005.50;;;22.61;43.10
81937;BME280;71432;56.558;9.036;2024-01-25T00:58:17;101006.16;;;22.63;42.96
81937;BME280;71432;56.558;9.036;2024-01-25T01:00:43;100999.84;;;22.56;43.20
81937;BME280;71432;56.558;9.036;2024-01-25T01:03:08;101012.59;;;22.60;43.08
81937;BME280;71432;56.558;9.036;2024-01-25T01:05:35;101001.22;;;22.60;43.12
81937;BME280;71432;56.558;9.036;2024-01-25T01:08:00;101021.94;;;22.55;43.03
81937;BME280;71432;56.558;9.036;2024-01-25T01:10:26;101036.09;;;22.54;43.22
81937;BME280;71432;56.558;9.036;2024-01-25T01:12:51;101053.47;;;22.56;42.94
81937;BME280;71432;56.558;9.036;2024-01-25T01:15:18;101057.91;;;22.56;43.10
81937;BME280;71432;56.558;9.036;2024-01-25T01:17:44;101074.19;;;22.51;43.04
81937;BME280;71432;56.558;9.036;2024-01-25T01:20:09;101093.31;;;22.53;43.02
81937;BME280;71432;56.558;9.036;2024-01-25T01:22:35;101082.84;;;22.44;43.23
81937;BME280;71432;56.558;9.036;2024-01-25T01:25:00;101090.84;;;22.52;42.99
81937;BME280;71432;56.558;9.036;2024-01-25T01:27:25;101090.00;;;22.51;42.87
81937;BME280;71432;56.558;9.036;2024-01-25T01:29:51;101078.75;;;22.49;43.12
81937;BME280;71432;56.558;9.036;2024-01-25T01:32:16;101109.59;;;22.49;43.07
81937;BME280;71432;56.558;9.036;2024-01-25T01:34:42;101128.91;;;22.49;43.15
81937;BME280;71432;56.558;9.036;2024-01-25T01:37:07;101125.59;;;22.47;43.24
81937;BME280;71432;56.558;9.036;2024-01-25T01:39:32;101142.25;;;22.48;43.02
81937;BME280;71432;56.558;9.036;2024-01-25T01:41:58;101146.69;;;22.47;43.04
81937;BME280;71432;56.558;9.036;2024-01-25T01:44:23;101150.31;;;22.46;43.08
81937;BME280;71432;56.558;9.036;2024-01-25T01:46:48;101136.59;;;22.43;42.92
81937;BME280;71432;56.558;9.036;2024-01-25T01:49:14;101132.41;;;22.40;43.10
81937;BME280;71432;56.558;9.036;2024-01-25T01:51:41;101121.59;;;22.43;43.01
81937;BME280;71432;56.558;9.036;2024-01-25T01:54:08;101135.63;;;22.44;43.06
81937;BME280;71432;56.558;9.036;2024-01-25T01:56:36;101147.97;;;22.43;43.00
81937;BME280;71432;56.558;9.036;2024-01-25T01:59:04;101152.41;;;22.43;43.04
81937;BME280;71432;56.558;9.036;2024-01-25T02:01:30;101170.03;;;22.42;43.01
81937;BME280;71432;56.558;9.036;2024-01-25T02:03:56;101171.44;;;22.37;43.20
81937;BME280;71432;56.558;9.036;2024-01-25T02:06:23;101191.16;;;22.42;43.31
81937;BME280;71432;56.558;9.036;2024-01-25T02:08:48;101196.56;;;22.41;43.25
81937;BME280;71432;56.558;9.036;2024-01-25T02:11:16;101186.16;;;22.39;43.01
81937;BME280;71432;56.558;9.036;2024-01-25T02:13:42;101189.25;;;22.35;43.29
81937;BME280;71432;56.558;9.036;2024-01-25T02:16:07;101194.22;;;22.38;43.23
81937;BME280;71432;56.558;9.036;2024-01-25T02:18:33;101215.19;;;22.39;43.04
81937;BME280;71432;56.558;9.036;2024-01-25T02:20:59;101203.09;;;22.37;43.06
81937;BME280;71432;56.558;9.036;2024-01-25T02:23:24;101202.28;;;22.36;43.17
81937;BME280;71432;56.558;9.036;2024-01-25T02:25:50;101184.78;;;22.35;43.18
81937;BME280;71432;56.558;9.036;2024-01-25T02:28:15;101189.69;;;22.30;43.35
81937;BME280;71432;56.558;9.036;2024-01-25T02:30:40;101201.59;;;22.34;43.30
81937;BME280;71432;56.558;9.036;2024-01-25T02:33:06;101223.53;;;22.35;43.24
81937;BME280;71432;56.558;9.036;2024-01-25T02:35:31;101237.00;;;22.32;43.04
81937;BME280;71432;56.558;9.036;2024-01-25T02:37:56;101247.53;;;22.32;43.16
81937;BME280;71432;56.558;9.036;2024-01-25T02:40:22;101256.16;;;22.34;43.53
81937;BME280;71432;56.558;9.036;2024-01-25T02:42:47;101255.31;;;22.33;43.19
81937;BME280;71432;56.558;9.036;2024-01-25T02:45:12;101255.47;;;22.32;43.32
81937;BME280;71432;56.558;9.036;2024-01-25T02:47:38;101245.06;;;22.30;42.93
81937;BME280;71432;56.558;9.036;2024-01-25T02:50:04;101245.06;;;22.30;43.31
81937;BME280;71432;56.558;9.036;2024-01-25T02:52:29;101249.09;;;22.25;43.33
81937;BME280;71432;56.558;9.036;2024-01-25T02:54:54;101254.91;;;22.28;43.57
81937;BME280;71432;56.558;9.036;2024-01-25T02:57:20;101248.56;;;22.21;43.17
81937;BME280;71432;56.558;9.036;2024-01-25T02:59:45;101267.03;;;22.21;43.59
81937;BME280;71432;56.558;9.036;2024-01-25T03:02:11;101256.84;;;22.26;43.31
81937;BME280;71432;56.558;9.036;2024-01-25T03:04:37;101261.47;;;22.24;43.37
81937;BME280;71432;56.558;9.036;2024-01-25T03:07:02;101270.34;;;22.23;43.49
81937;BME280;71432;56.558;9.036;2024-01-25T03:09:28;101281.72;;;22.24;43.31
81937;BME280;71432;56.558;9.036;2024-01-25T03:11:53;101272.56;;;22.18;43.43
81937;BME280;71432;56.558;9.036;2024-01-25T03:14:18;101291.44;;;22.23;43.41
81937;BME280;71432;56.558;9.036;2024-01-25T03:16:44;101291.88;;;22.18;43.32
81937;BME280;71432;56.558;9.036;2024-01-25T03:19:10;101267.47;;;22.16;43.11
81937;BME280;71432;56.558;9.036;2024-01-25T03:21:35;101300.31;;;22.22;43.66
81937;BME280;71432;56.558;9.036;2024-01-25T03:24:01;101310.88;;;22.22;43.21
81937;BME280;71432;56.558;9.036;2024-01-25T03:26:29;101315.47;;;22.20;43.49
81937;BME280;71432;56.558;9.036;2024-01-25T03:28:54;101324.22;;;22.21;43.50
81937;BME280;71432;56.558;9.036;2024-01-25T03:31:19;101328.78;;;22.18;43.45
81937;BME280;71432;56.558;9.036;2024-01-25T03:33:45;101329.06;;;22.15;43.37
81937;BME280;71432;56.558;9.036;2024-01-25T03:36:13;101330.59;;;22.18;43.32
81937;BME280;71432;56.558;9.036;2024-01-25T03:38:39;101331.56;;;22.17;43.54
81937;BME280;71432;56.558;9.036;2024-01-25T03:41:04;101322.00;;;22.16;43.32
81937;BME280;71432;56.558;9.036;2024-01-25T03:43:30;101317.28;;;22.10;43.73
81937;BME280;71432;56.558;9.036;2024-01-25T03:45:55;101337.00;;;22.15;43.72
81937;BME280;71432;56.558;9.036;2024-01-25T03:48:20;101345.72;;;22.16;43.62
81937;BME280;71432;56.558;9.036;2024-01-25T03:50:47;101339.75;;;22.14;43.48
81937;BME280;71432;56.558;9.036;2024-01-25T03:53:12;101346.00;;;22.13;43.72
81937;BME280;71432;56.558;9.036;2024-01-25T03:55:37;101335.44;;;22.13;43.68
81937;BME280;71432;56.558;9.036;2024-01-25T03:58:03;101340.84;;;21.92;43.72
81937;BME280;71432;56.558;9.036;2024-01-25T04:00:28;101384.88;;;22.11;43.51
81937;BME280;71432;56.558;9.036;2024-01-25T04:02:54;101385.72;;;22.11;43.52
81937;BME280;71432;56.558;9.036;2024-01-25T04:05:19;101402.50;;;22.10;43.60
81937;BME280;71432;56.558;9.036;2024-01-25T04:07:44;101405.13;;;22.10;43.79
81937;BME280;71432;56.558;9.036;2024-01-25T04:10:09;101418.31;;;22.10;43.65
81937;BME280;71432;56.558;9.036;2024-01-25T04:12:35;101437.72;;;22.09;43.37
81937;BME280;71432;56.558;9.036;2024-01-25T04:15:01;101433.59;;;22.07;43.72
81937;BME280;71432;56.558;9.036;2024-01-25T04:17:26;101441.50;;;22.07;43.64
81937;BME280;71432;56.558;9.036;2024-01-25T04:19:51;101445.50;;;22.01;43.58
81937;BME280;71432;56.558;9.036;2024-01-25T04:22:17;101448.69;;;21.95;43.45
81937;BME280;71432;56.558;9.036;2024-01-25T04:24:42;101454.66;;;21.97;43.51
81937;BME280;71432;56.558;9.036;2024-01-25T04:27:09;101477.81;;;22.03;43.38
81937;BME280;71432;56.558;9.036;2024-01-25T04:29:38;101474.22;;;22.04;43.60
81937;BME280;71432;56.558;9.036;2024-01-25T04:32:04;101489.22;;;22.04;43.74
81937;BME280;71432;56.558;9.036;2024-01-25T04:34:29;101486.31;;;21.97;43.50
81937;BME280;71432;56.558;9.036;2024-01-25T04:36:55;101491.56;;;21.97;43.82
81937;BME280;71432;56.558;9.036;2024-01-25T04:39:20;101497.41;;;22.01;43.78
81937;BME280;71432;56.558;9.036;2024-01-25T04:41:45;101504.47;;;22.00;43.74
81937;BME280;71432;56.558;9.036;2024-01-25T04:44:11;101511.41;;;22.01;43.53
81937;BME280;71432;56.558;9.036;2024-01-25T04:46:36;101521.13;;;22.01;43.59
81937;BME280;71432;56.558;9.036;2024-01-25T04:49:03;101524.59;;;22.01;43.55
81937;BME280;71432;56.558;9.036;2024-01-25T04:51:28;101544.03;;;22.00;43.46
81937;BME280;71432;56.558;9.036;2024-01-25T04:53:53;101539.03;;;21.97;43.39
81937;BME280;71432;56.558;9.036;2024-01-25T04:56:19;101551.09;;;22.00;43.46
81937;BME280;71432;56.558;9.036;2024-01-25T04:58:44;101550.25;;;21.99;43.82
81937;BME280;71432;56.558;9.036;2024-01-25T05:01:09;101549.41;;;21.99;43.73
81937;BME280;71432;56.558;9.036;2024-01-25T05:03:35;101546.38;;;21.94;43.45
81937;BME280;71432;56.558;9.036;2024-01-25T05:06:00;101557.31;;;21.99;43.77
81937;BME280;71432;56.558;9.036;2024-01-25T05:08:26;101543.75;;;21.94;43.59
81937;BME280;71432;56.558;9.036;2024-01-25T05:10:51;101560.25;;;21.96;43.76
81937;BME280;71432;56.558;9.036;2024-01-25T05:13:17;101560.13;;;21.97;43.71
81937;BME280;71432;56.558;9.036;2024-01-25T05:15:42;101575.09;;;21.97;43.78
81937;BME280;71432;56.558;9.036;2024-01-25T05:18:07;101574.25;;;21.96;43.73
81937;BME280;71432;56.558;9.036;2024-01-25T05:20:33;101581.44;;;21.94;43.81
81937;BME280;71432;56.558;9.036;2024-01-25T05:23:01;101592.59;;;21.98;43.77
81937;BME280;71432;56.558;9.036;2024-01-25T05:25:27;101588.78;;;21.91;43.83
81937;BME280;71432;56.558;9.036;2024-01-25T05:27:53;101601.84;;;21.92;43.66
81937;BME280;71432;56.558;9.036;2024-01-25T05:30:19;101601.84;;;21.92;43.77
81937;BME280;71432;56.558;9.036;2024-01-25T05:32:44;101607.56;;;21.97;43.80
81937;BME280;71432;56.558;9.036;2024-01-25T05:35:11;101604.38;;;21.94;43.85
81937;BME280;71432;56.558;9.036;2024-01-25T05:37:36;101619.09;;;21.96;44.17
81937;BME280;71432;56.558;9.036;2024-01-25T05:40:02;101621.84;;;21.95;44.02
81937;BME280;71432;56.558;9.036;2024-01-25T05:42:27;101635.84;;;21.95;44.20
81937;BME280;71432;56.558;9.036;2024-01-25T05:44:52;101635.19;;;21.93;44.01
81937;BME280;71432;56.558;9.036;2024-01-25T05:47:18;101641.28;;;21.94;43.95
81937;BME280;71432;56.558;9.036;2024-01-25T05:49:43;101660.44;;;21.96;44.09
81937;BME280;71432;56.558;9.036;2024-01-25T05:52:09;101654.19;;;21.97;43.90
81937;BME280;71432;56.558;9.036;2024-01-25T05:54:34;101661.16;;;21.98;43.89
81937;BME280;71432;56.558;9.036;2024-01-25T05:56:59;101671.69;;;21.98;43.99
81937;BME280;71432;56.558;9.036;2024-01-25T05:59:24;101669.06;;;21.98;44.33
81937;BME280;71432;56.558;9.036;2024-01-25T06:01:50;101670.00;;;21.97;44.33
81937;BME280;71432;56.558;9.036;2024-01-25T06:04:15;101672.38;;;22.00;44.38
81937;BME280;71432;56.558;9.036;2024-01-25T06:06:40;101669.75;;;22.00;44.43
81937;BME280;71432;56.558;9.036;2024-01-25T06:09:07;101677.53;;;22.01;44.32
81937;BME280;71432;56.558;9.036;2024-01-25T06:11:32;101662.94;;;21.97;44.18
81937;BME280;71432;56.558;9.036;2024-01-25T06:13:58;101675.16;;;21.98;44.34
81937;BME280;71432;56.558;9.036;2024-01-25T06:16:23;101694.03;;;22.03;44.32
81937;BME280;71432;56.558;9.036;2024-01-25T06:18:49;101695.72;;;22.04;44.44
81937;BME280;71432;56.558;9.036;2024-01-25T06:21:14;101702.53;;;22.07;44.36
81937;BME280;71432;56.558;9.036;2024-01-25T06:26:05;101698.34;;;22.04;45.25
81937;BME280;71432;56.558;9.036;2024-01-25T06:28:30;101693.63;;;21.98;45.47
81937;BME280;71432;56.558;9.036;2024-01-25T06:30:55;101696.09;;;22.00;45.43
81937;BME280;71432;56.558;9.036;2024-01-25T06:33:21;101720.72;;;22.10;45.26
81937;BME280;71432;56.558;9.036;2024-01-25T06:35:46;101711.28;;;22.07;45.46
81937;BME280;71432;56.558;9.036;2024-01-25T06:38:12;101729.59;;;22.09;45.16
81937;BME280;71432;56.558;9.036;2024-01-25T06:40:37;101730.44;;;22.09;46.00
81937;BME280;71432;56.558;9.036;2024-01-25T06:43:03;101724.72;;;22.04;45.30
81937;BME280;71432;56.558;9.036;2024-01-25T06:45:29;101758.59;;;22.09;45.16
81937;BME280;71432;56.558;9.036;2024-01-25T06:47:54;101750.84;;;22.07;45.23
81937;BME280;71432;56.558;9.036;2024-01-25T06:50:19;101758.50;;;22.10;44.87
81937;BME280;71432;56.558;9.036;2024-01-25T06:52:45;101761.97;;;22.11;45.04
81937;BME280;71432;56.558;9.036;2024-01-25T06:55:10;101766.13;;;22.13;45.07
81937;BME280;71432;56.558;9.036;2024-01-25T06:57:35;101767.25;;;22.11;44.89
81937;BME280;71432;56.558;9.036;2024-01-25T07:00:01;101771.41;;;22.13;44.99
81937;BME280;71432;56.558;9.036;2024-01-25T07:02:26;101775.72;;;22.14;44.95
81937;BME280;71432;56.558;9.036;2024-01-25T07:04:51;101778.63;;;22.11;44.62
81937;BME280;71432;56.558;9.036;2024-01-25T07:07:19;101791.44;;;22.16;44.67
81937;BME280;71432;56.558;9.036;2024-01-25T07:09:44;101793.06;;;22.17;44.61
81937;BME280;71432;56.558;9.036;2024-01-25T07:12:09;101793.91;;;22.17;44.79
81937;BME280;71432;56.558;9.036;2024-01-25T07:14:35;101802.66;;;22.18;44.72
81937;BME280;71432;56.558;9.036;2024-01-25T07:17:00;101792.84;;;22.20;44.85
81937;BME280;71432;56.558;9.036;2024-01-25T07:19:25;101786.28;;;22.14;44.89
81937;BME280;71432;56.558;9.036;2024-01-25T07:21:51;101788.41;;;22.21;44.80
81937;BME280;71432;56.558;9.036;2024-01-25T07:24:16;101789.25;;;22.21;44.89
81937;BME280;71432;56.558;9.036;2024-01-25T07:26:41;101785.16;;;22.17;44.61
81937;BME280;71432;56.558;9.036;2024-01-25T07:29:07;101791.44;;;22.16;44.65
81937;BME280;71432;56.558;9.036;2024-01-25T07:31:32;101792.28;;;22.16;44.67
81937;BME280;71432;56.558;9.036;2024-01-25T07:33:57;101789.75;;;22.15;44.65
81937;BME280;71432;56.558;9.036;2024-01-25T07:36:23;101792.28;;;22.16;44.52
81937;BME280;71432;56.558;9.036;2024-01-25T07:38:48;101792.13;;;22.18;44.79
81937;BME280;71432;56.558;9.036;2024-01-25T07:41:14;101788.53;;;22.19;44.40
81937;BME280;71432;56.558;9.036;2024-01-25T07:43:40;101782.41;;;22.18;44.39
81937;BME280;71432;56.558;9.036;2024-01-25T07:46:06;101787.56;;;22.20;44.69
81937;BME280;71432;56.558;9.036;2024-01-25T07:48:32;101791.16;;;22.19;44.62
81937;BME280;71432;56.558;9.036;2024-01-25T07:50:57;101804.06;;;22.22;45.03
81937;BME280;71432;56.558;9.036;2024-01-25T07:53:22;101818.56;;;22.28;44.49
81937;BME280;71432;56.558;9.036;2024-01-25T07:55:48;101827.19;;;22.30;44.60
81937;BME280;71432;56.558;9.036;2024-01-25T07:58:15;101827.44;;;22.27;44.22
81937;BME280;71432;56.558;9.036;2024-01-25T08:00:40;101847.06;;;22.34;44.33
81937;BME280;71432;56.558;9.036;2024-01-25T08:03:07;101848.59;;;22.36;44.49
81937;BME280;71432;56.558;9.036;2024-01-25T08:05:32;101840.00;;;22.34;44.52
81937;BME280;71432;56.558;9.036;2024-01-25T08:07:58;101828.72;;;22.32;44.72
81937;BME280;71432;56.558;9.036;2024-01-25T08:10:23;101841.13;;;22.41;44.23
81937;BME280;71432;56.558;9.036;2024-01-25T08:12:48;101839.91;;;22.45;44.56
81937;BME280;71432;56.558;9.036;2024-01-25T08:15:14;101836.88;;;22.50;44.53
81937;BME280;71432;56.558;9.036;2024-01-25T08:17:39;101840.22;;;22.52;44.36
81937;BME280;71432;56.558;9.036;2024-01-25T08:20:05;101830.06;;;22.47;44.46
81937;BME280;71432;56.558;9.036;2024-01-25T08:22:31;101847.47;;;22.59;44.59
81937;BME280;71432;56.558;9.036;2024-01-25T08:24:57;101850.84;;;22.61;44.30
81937;BME280;71432;56.558;9.036;2024-01-25T08:27:22;101859.31;;;22.65;44.39
81937;BME280;71432;56.558;9.036;2024-01-25T08:29:48;101860.16;;;22.66;44.47
81937;BME280;71432;56.558;9.036;2024-01-25T08:32:13;101865.44;;;22.66;44.01
81937;BME280;71432;56.558;9.036;2024-01-25T08:34:38;101869.63;;;22.68;44.23
81937;BME280;71432;56.558;9.036;2024-01-25T08:37:04;101873.09;;;22.69;44.41
81937;BME280;71432;56.558;9.036;2024-01-25T08:39:29;101865.69;;;22.62;44.09
81937;BME280;71432;56.558;9.036;2024-01-25T08:41:54;101875.50;;;22.72;44.43
81937;BME280;71432;56.558;9.036;2024-01-25T08:44:21;101876.94;;;22.76;44.23
81937;BME280;71432;56.558;9.036;2024-01-25T08:46:46;101878.28;;;22.70;44.39
81937;BME280;71432;56.558;9.036;2024-01-25T08:49:12;101886.38;;;22.78;44.13
81937;BME280;71432;56.558;9.036;2024-01-25T08:51:38;101882.06;;;22.77;44.00
81937;BME280;71432;56.558;9.036;2024-01-25T08:54:03;101897.38;;;22.83;44.06
81937;BME280;71432;56.558;9.036;2024-01-25T08:56:29;101900.72;;;22.85;44.50
81937;BME280;71432;56.558;9.036;2024-01-25T08:58:54;101893.91;;;22.83;43.94
81937;BME280;71432;56.558;9.036;2024-01-25T09:01:20;101911.44;;;22.84;43.44
81937;BME280;71432;56.558;9.036;2024-01-25T09:03:45;101907.81;;;22.85;43.72
81937;BME280;71432;56.558;9.036;2024-01-25T09:06:11;101923.84;;;22.93;43.84
81937;BME280;71432;56.558;9.036;2024-01-25T09:08:37;101938.44;;;22.97;43.48
81937;BME280;71432;56.558;9.036;2024-01-25T09:11:03;101929.69;;;22.96;43.34
81937;BME280;71432;56.558;9.036;2024-01-25T09:13:29;101936.94;;;23.04;43.19
81937;BME280;71432;56.558;9.036;2024-01-25T09:15:55;101948.41;;;23.14;43.10
81937;BME280;71432;56.558;9.036;2024-01-25T09:18:20;101952.97;;;23.42;42.35
81937;BME280;71432;56.558;9.036;2024-01-25T09:20:46;101956.19;;;24.15;41.34
81937;BME280;71432;56.558;9.036;2024-01-25T09:23:14;101964.25;;;24.80;40.15
81937;BME280;71432;56.558;9.036;2024-01-25T09:25:41;101961.78;;;25.26;39.09
81937;BME280;71432;56.558;9.036;2024-01-25T09:28:07;101967.75;;;25.64;38.06
81937;BME280;71432;56.558;9.036;2024-01-25T09:30:32;101974.06;;;25.99;37.49
81937;BME280;71432;56.558;9.036;2024-01-25T09:32:57;101968.88;;;26.07;36.97
81937;BME280;71432;56.558;9.036;2024-01-25T09:35:23;101984.66;;;25.81;36.84
81937;BME280;71432;56.558;9.036;2024-01-25T09:37:48;101993.69;;;25.34;37.87
81937;BME280;71432;56.558;9.036;2024-01-25T09:40:17;101990.19;;;24.87;38.20
81937;BME280;71432;56.558;9.036;2024-01-25T09:42:44;101996.91;;;24.62;36.75
81937;BME280;71432;56.558;9.036;2024-01-25T09:45:11;101993.00;;;24.47;37.31
81937;BME280;71432;56.558;9.036;2024-01-25T09:47:41;101994.25;;;24.33;38.27
81937;BME280;71432;56.558;9.036;2024-01-25T09:50:07;101998.84;;;24.21;38.59
81937;BME280;71432;56.558;9.036;2024-01-25T09:52:34;101986.53;;;24.01;39.05
81937;BME280;71432;56.558;9.036;2024-01-25T09:54:59;102010.88;;;23.95;39.31
81937;BME280;71432;56.558;9.036;2024-01-25T09:57:28;102011.00;;;23.84;39.35
81937;BME280;71432;56.558;9.036;2024-01-25T09:59:54;102003.88;;;23.75;39.56
81937;BME280;71432;56.558;9.036;2024-01-25T10:02:22;102014.03;;;23.70;40.00
81937;BME280;71432;56.558;9.036;2024-01-25T10:04:50;102013.72;;;23.63;40.29
81937;BME280;71432;56.558;9.036;2024-01-25T10:07:34;102020.19;;;23.49;40.13
81937;BME280;71432;56.558;9.036;2024-01-25T10:10:00;102017.84;;;23.46;40.40
81937;BME280;71432;56.558;9.036;2024-01-25T10:12:25;102010.16;;;23.43;40.73
81937;BME280;71432;56.558;9.036;2024-01-25T10:14:51;102010.94;;;23.34;40.97
81937;BME280;71432;56.558;9.036;2024-01-25T10:17:16;102016.75;;;23.28;40.96
81937;BME280;71432;56.558;9.036;2024-01-25T10:19:45;102017.59;;;23.29;41.30
81937;BME280;71432;56.558;9.036;2024-01-25T10:22:10;102019.06;;;23.22;41.32
81937;BME280;71432;56.558;9.036;2024-01-25T10:24:38;102021.28;;;23.17;41.36
81937;BME280;71432;56.558;9.036;2024-01-25T10:27:04;102007.75;;;23.10;41.42
81937;BME280;71432;56.558;9.036;2024-01-25T10:29:29;102012.19;;;23.10;41.54
81937;BME280;71432;56.558;9.036;2024-01-25T10:31:54;102001.56;;;23.00;41.74
81937;BME280;71432;56.558;9.036;2024-01-25T10:34:20;102010.59;;;22.97;41.68
81937;BME280;71432;56.558;9.036;2024-01-25T10:36:47;102002.91;;;22.94;41.53
81937;BME280;71432;56.558;9.036;2024-01-25T10:39:13;102019.38;;;22.98;41.73
81937;BME280;71432;56.558;9.036;2024-01-25T10:41:40;102033.66;;;22.95;41.70
81937;BME280;71432;56.558;9.036;2024-01-25T10:44:06;102045.44;;;22.91;41.75
81937;BME280;71432;56.558;9.036;2024-01-25T10:46:32;102045.56;;;22.90;41.73
81937;BME280;71432;56.558;9.036;2024-01-25T10:48:58;102041.25;;;22.89;42.15
81937;BME280;71432;56.558;9.036;2024-01-25T10:51:27;102030.38;;;22.82;41.96
81937;BME280;71432;56.558;9.036;2024-01-25T10:53:53;102034.28;;;22.88;42.26
81937;BME280;71432;56.558;9.036;2024-01-25T10:56:20;102030.25;;;22.84;42.14
81937;BME280;71432;56.558;9.036;2024-01-25T10:58:46;102033.56;;;22.86;42.02
81937;BME280;71432;56.558;9.036;2024-01-25T11:01:11;102034.41;;;22.86;40.00
81937;BME280;71432;56.558;9.036;2024-01-25T11:03:39;102051.38;;;22.84;40.75
81937;BME280;71432;56.558;9.036;2024-01-25T11:06:11;102039.25;;;22.81;41.01
81937;BME280;71432;56.558;9.036;2024-01-25T11:08:38;102025.59;;;22.76;41.02
81937;BME280;71432;56.558;9.036;2024-01-25T11:11:07;102031.25;;;22.72;41.31
81937;BME280;71432;56.558;9.036;2024-01-25T11:13:34;102033.19;;;22.70;41.57
81937;BME280;71432;56.558;9.036;2024-01-25T11:16:13;102032.44;;;22.68;41.81
81937;BME280;71432;56.558;9.036;2024-01-25T11:18:54;102040.34;;;22.68;41.48
81937;BME280;71432;56.558;9.036;2024-01-25T11:21:25;102041.47;;;22.65;41.61
81937;BME280;71432;56.558;9.036;2024-01-25T11:23:59;102050.06;;;22.67;41.83
81937;BME280;71432;56.558;9.036;2024-01-25T11:26:25;102045.31;;;22.61;41.81
81937;BME280;71432;56.558;9.036;2024-01-25T11:28:51;102052.72;;;22.67;41.63
81937;BME280;71432;56.558;9.036;2024-01-25T11:31:16;102060.63;;;22.67;41.84
81937;BME280;71432;56.558;9.036;2024-01-25T11:33:41;102049.25;;;22.67;41.93
81937;BME280;71432;56.558;9.036;2024-01-25T11:36:07;102043.13;;;22.66;42.06
81937;BME280;71432;56.558;9.036;2024-01-25T11:38:32;102044.09;;;22.65;42.02
81937;BME280;71432;56.558;9.036;2024-01-25T11:40:58;102038.25;;;22.61;41.98
81937;BME280;71432;56.558;9.036;2024-01-25T11:43:24;102051.19;;;22.65;41.91
81937;BME280;71432;56.558;9.036;2024-01-25T11:45:49;102040.28;;;22.58;41.98
81937;BME280;71432;56.558;9.036;2024-01-25T11:48:14;102046.16;;;22.61;41.85
81937;BME280;71432;56.558;9.036;2024-01-25T11:50:40;102052.84;;;22.66;41.94
81937;BME280;71432;56.558;9.036;2024-01-25T11:53:05;102042.16;;;22.67;41.46
81937;BME280;71432;56.558;9.036;2024-01-25T11:55:30;102037.03;;;22.66;41.30
81937;BME280;71432;56.558;9.036;2024-01-25T11:57:56;102046.63;;;22.67;41.33
81937;BME280;71432;56.558;9.036;2024-01-25T12:00:21;102032.97;;;22.61;41.43
81937;BME280;71432;56.558;9.036;2024-01-25T12:02:48;102037.03;;;22.66;41.85
81937;BME280;71432;56.558;9.036;2024-01-25T12:05:13;102031.28;;;22.60;41.59
81937;BME280;71432;56.558;9.036;2024-01-25T12:07:39;102039.41;;;22.69;41.80
81937;BME280;71432;56.558;9.036;2024-01-25T12:10:07;102023.66;;;22.67;41.80
81937;BME280;71432;56.558;9.036;2024-01-25T12:12:35;102040.00;;;22.72;42.13
81937;BME280;71432;56.558;9.036;2024-01-25T12:15:03;102039.31;;;22.70;42.00
81937;BME280;71432;56.558;9.036;2024-01-25T12:17:30;102056.56;;;22.74;41.94
81937;BME280;71432;56.558;9.036;2024-01-25T12:19:56;102065.19;;;22.76;42.22
81937;BME280;71432;56.558;9.036;2024-01-25T12:22:22;102050.56;;;22.72;42.26
81937;BME280;71432;56.558;9.036;2024-01-25T12:24:48;102041.94;;;22.70;42.20
81937;BME280;71432;56.558;9.036;2024-01-25T12:27:17;102046.69;;;22.76;42.48
81937;BME280;71432;56.558;9.036;2024-01-25T12:29:42;102048.53;;;22.76;42.25
81937;BME280;71432;56.558;9.036;2024-01-25T12:32:10;102043.09;;;22.77;42.69
81937;BME280;71432;56.558;9.036;2024-01-25T12:34:35;102046.47;;;22.79;42.47
81937;BME280;71432;56.558;9.036;2024-01-25T12:37:03;102060.63;;;22.78;42.50
81937;BME280;71432;56.558;9.036;2024-01-25T12:39:28;102057.03;;;22.79;42.44
81937;BME280;71432;56.558;9.036;2024-01-25T12:41:53;102062.16;;;22.81;42.35
81937;BME280;71432;56.558;9.036;2024-01-25T12:44:19;102063.84;;;22.82;42.69
81937;BME280;71432;56.558;9.036;2024-01-25T12:46:44;102048.53;;;22.76;42.87